sensor_id;sensor_type;location;lat;lon;timestamp;temperature;humidity
19292;DHT22;9779;51.756;7.450;2022-07-15T00:00:07;16.90;99.90
19292;DHT22;9779;51.756;7.450;2022-07-15T00:02:33;16.90;99.90
19292;DHT22;9779;51.756;7.450;2022-07-15T00:04:59;16.90;99.90
19292;DHT22;9779;51.756;7.450;2022-07-15T00:07:25;16.80;99.90
19292;DHT22;9779;51.756;7.450;2022-07-15T00:09:50;16.80;99.90
19292;DHT22;9779;51.756;7.450;2022-07-15T00:17:29;16.60;99.90
19292;DHT22;9779;51.756;7.450;2022-07-15T00:19:54;16.60;99.90
19292;DHT22;9779;51.756;7.450;2022-07-15T00:22:20;16.50;99.90
19292;DHT22;9779;51.756;7.450;2022-07-15T00:24:46;16.50;99.90
19292;DHT22;9779;51.756;7.450;2022-07-15T00:27:11;16.50;99.90
19292;DHT22;9779;51.756;7.450;2022-07-15T00:29:37;16.50;99.90
19292;DHT22;9779;51.756;7.450;2022-07-15T00:32:03;16.40;99.90
19292;DHT22;9779;51.756;7.450;2022-07-15T00:34:29;16.40;99.90
19292;DHT22;9779;51.756;7.450;2022-07-15T00:36:54;16.40;99.90
19292;DHT22;9779;51.756;7.450;2022-07-15T00:39:20;16.40;99.90
19292;DHT22;9779;51.756;7.450;2022-07-15T00:41:46;16.30;99.90
19292;DHT22;9779;51.756;7.450;2022-07-15T00:44:11;16.20;99.90
19292;DHT22;9779;51.756;7.450;2022-07-15T00:46:37;16.30;99.90
19292;DHT22;9779;51.756;7.450;2022-07-15T00:49:04;16.20;99.90
19292;DHT22;9779;51.756;7.450;2022-07-15T00:51:42;16.20;99.90
19292;DHT22;9779;51.756;7.450;2022-07-15T00:54:12;16.20;99.90
19292;DHT22;9779;51.756;7.450;2022-07-15T00:56:41;16.20;99.90
19292;DHT22;9779;51.756;7.450;2022-07-15T00:59:10;16.10;99.90
19292;DHT22;9779;51.756;7.450;2022-07-15T01:01:37;16.10;99.90
19292;DHT22;9779;51.756;7.450;2022-07-15T01:04:04;16.10;99.90
19292;DHT22;9779;51.756;7.450;2022-07-15T01:06:30;16.10;99.90
19292;DHT22;9779;51.756;7.450;2022-07-15T01:08:56;16.10;99.90
19292;DHT22;9779;51.756;7.450;2022-07-15T01:11:22;16.10;99.90
19292;DHT22;9779;51.756;7.450;2022-07-15T01:13:47;16.00;99.90
19292;DHT22;9779;51.756;7.450;2022-07-15T02:37:04;14.50;99.90
19292;DHT22;9779;51.756;7.450;2022-07-15T02:39:30;14.30;99.90
19292;DHT22;9779;51.756;7.450;2022-07-15T02:41:56;14.90;99.90
19292;DHT22;9779;51.756;7.450;2022-07-15T02:44:21;14.90;99.90
19292;DHT22;9779;51.756;7.450;2022-07-15T02:46:47;14.90;99.90
19292;DHT22;9779;51.756;7.450;2022-07-15T02:49:13;14.70;99.90
19292;DHT22;9779;51.756;7.450;2022-07-15T02:51:38;14.70;99.90
19292;DHT22;9779;51.756;7.450;2022-07-15T02:54:04;14.70;99.90
19292;DHT22;9779;51.756;7.450;2022-07-15T02:56:29;14.60;99.90
19292;DHT22;9779;51.756;7.450;2022-07-15T02:58:55;14.70;99.90
19292;DHT22;9779;51.756;7.450;2022-07-15T03:01:20;14.60;99.90
19292;DHT22;9779;51.756;7.450;2022-07-15T03:03:46;14.50;99.90
19292;DHT22;9779;51.756;7.450;2022-07-15T03:06:11;14.50;99.90
19292;DHT22;9779;51.756;7.450;2022-07-15T03:08:37;14.40;99.90
19292;DHT22;9779;51.756;7.450;2022-07-15T03:11:03;14.50;99.90
19292;DHT22;9779;51.756;7.450;2022-07-15T03:13:28;14.40;99.90
19292;DHT22;9779;51.756;7.450;2022-07-15T03:15:54;14.50;99.90
19292;DHT22;9779;51.756;7.450;2022-07-15T03:18:20;14.50;99.90
19292;DHT22;9779;51.756;7.450;2022-07-15T03:20:45;14.40;99.90
19292;DHT22;9779;51.756;7.450;2022-07-15T03:23:12;14.40;99.90
19292;DHT22;9779;51.756;7.450;2022-07-15T03:25:37;14.40;99.90
19292;DHT22;9779;51.756;7.450;2022-07-15T03:28:04;14.20;99.90
19292;DHT22;9779;51.756;7.450;2022-07-15T03:30:29;14.30;99.90
19292;DHT22;9779;51.756;7.450;2022-07-15T03:32:55;14.20;99.90
19292;DHT22;9779;51.756;7.450;2022-07-15T03:35:21;14.20;99.90
19292;DHT22;9779;51.756;7.450;2022-07-15T03:37:46;14.20;99.90
19292;DHT22;9779;51.756;7.450;2022-07-15T03:40:12;14.20;99.90
19292;DHT22;9779;51.756;7.450;2022-07-15T03:42:38;14.20;99.90
19292;DHT22;9779;51.756;7.450;2022-07-15T03:45:04;14.10;99.90
19292;DHT22;9779;51.756;7.450;2022-07-15T03:47:29;14.10;99.90
19292;DHT22;9779;51.756;7.450;2022-07-15T03:49:55;14.10;99.90
19292;DHT22;9779;51.756;7.450;2022-07-15T03:52:21;14.20;99.90
19292;DHT22;9779;51.756;7.450;2022-07-15T03:54:46;14.10;99.90
19292;DHT22;9779;51.756;7.450;2022-07-15T03:57:12;14.10;99.90
19292;DHT22;9779;51.756;7.450;2022-07-15T03:59:37;14.20;99.90
19292;DHT22;9779;51.756;7.450;2022-07-15T04:02:03;14.10;99.90
19292;DHT22;9779;51.756;7.450;2022-07-15T04:04:28;14.10;99.90
19292;DHT22;9779;51.756;7.450;2022-07-15T04:06:54;14.10;99.90
19292;DHT22;9779;51.756;7.450;2022-07-15T04:09:19;14.10;99.90
19292;DHT22;9779;51.756;7.450;2022-07-15T04:11:45;14.10;99.90
19292;DHT22;9779;51.756;7.450;2022-07-15T04:14:14;14.00;99.90
19292;DHT22;9779;51.756;7.450;2022-07-15T04:16:41;14.10;99.90
19292;DHT22;9779;51.756;7.450;2022-07-15T04:19:06;14.00;99.90
19292;DHT22;9779;51.756;7.450;2022-07-15T04:21:32;14.10;99.90
19292;DHT22;9779;51.756;7.450;2022-07-15T04:23:58;14.00;99.90
19292;DHT22;9779;51.756;7.450;2022-07-15T04:26:24;14.00;99.90
19292;DHT22;9779;51.756;7.450;2022-07-15T04:28:49;14.00;99.90
19292;DHT22;9779;51.756;7.450;2022-07-15T04:31:15;14.00;99.90
19292;DHT22;9779;51.756;7.450;2022-07-15T04:33:40;14.00;99.90
19292;DHT22;9779;51.756;7.450;2022-07-15T04:36:06;14.00;99.90
19292;DHT22;9779;51.756;7.450;2022-07-15T04:38:32;14.00;99.90
19292;DHT22;9779;51.756;7.450;2022-07-15T04:40:57;14.00;99.90
19292;DHT22;9779;51.756;7.450;2022-07-15T04:43:23;14.00;99.90
19292;DHT22;9779;51.756;7.450;2022-07-15T04:45:49;14.00;99.90
19292;DHT22;9779;51.756;7.450;2022-07-15T04:48:16;14.00;99.90
19292;DHT22;9779;51.756;7.450;2022-07-15T04:51:00;14.00;99.90
19292;DHT22;9779;51.756;7.450;2022-07-15T04:53:26;14.00;99.90
19292;DHT22;9779;51.756;7.450;2022-07-15T04:55:51;14.10;99.90
19292;DHT22;9779;51.756;7.450;2022-07-15T04:58:17;14.10;99.90
19292;DHT22;9779;51.756;7.450;2022-07-15T05:00:44;14.10;99.90
19292;DHT22;9779;51.756;7.450;2022-07-15T05:03:10;14.10;99.90
19292;DHT22;9779;51.756;7.450;2022-07-15T05:05:36;14.20;99.90
19292;DHT22;9779;51.756;7.450;2022-07-15T05:08:01;14.20;99.90
19292;DHT22;9779;51.756;7.450;2022-07-15T05:10:27;14.20;99.90
19292;DHT22;9779;51.756;7.450;2022-07-15T05:12:52;14.20;99.90
19292;DHT22;9779;51.756;7.450;2022-07-15T05:15:18;14.20;99.90
19292;DHT22;9779;51.756;7.450;2022-07-15T05:17:44;14.20;99.90
19292;DHT22;9779;51.756;7.450;2022-07-15T05:20:10;14.30;99.90
19292;DHT22;9779;51.756;7.450;2022-07-15T05:22:35;14.30;99.90
19292;DHT22;9779;51.756;7.450;2022-07-15T05:25:01;14.30;99.90
19292;DHT22;9779;51.756;7.450;2022-07-15T05:27:26;14.30;99.90
19292;DHT22;9779;51.756;7.450;2022-07-15T05:29:52;14.40;99.90
19292;DHT22;9779;51.756;7.450;2022-07-15T05:32:17;14.30;99.90
19292;DHT22;9779;51.756;7.450;2022-07-15T05:34:43;14.30;99.90
19292;DHT22;9779;51.756;7.450;2022-07-15T05:37:09;14.30;99.90
19292;DHT22;9779;51.756;7.450;2022-07-15T05:39:35;14.40;99.90
19292;DHT22;9779;51.756;7.450;2022-07-15T05:42:00;14.40;99.90
19292;DHT22;9779;51.756;7.450;2022-07-15T05:44:26;14.50;99.90
19292;DHT22;9779;51.756;7.450;2022-07-15T05:46:52;14.60;99.90
19292;DHT22;9779;51.756;7.450;2022-07-15T05:49:18;14.60;99.90
19292;DHT22;9779;51.756;7.450;2022-07-15T05:51:44;14.70;99.90
19292;DHT22;9779;51.756;7.450;2022-07-15T05:54:10;14.70;99.90
19292;DHT22;9779;51.756;7.450;2022-07-15T05:56:38;14.70;99.90
19292;DHT22;9779;51.756;7.450;2022-07-15T05:59:04;14.70;99.90
19292;DHT22;9779;51.756;7.450;2022-07-15T06:01:29;14.70;99.90
19292;DHT22;9779;51.756;7.450;2022-07-15T06:03:55;14.80;99.90
19292;DHT22;9779;51.756;7.450;2022-07-15T06:06:20;14.90;99.90
19292;DHT22;9779;51.756;7.450;2022-07-15T06:08:46;15.00;99.90
19292;DHT22;9779;51.756;7.450;2022-07-15T06:11:12;15.00;99.90
19292;DHT22;9779;51.756;7.450;2022-07-15T06:13:38;15.10;99.90
19292;DHT22;9779;51.756;7.450;2022-07-15T06:16:04;15.30;99.90
19292;DHT22;9779;51.756;7.450;2022-07-15T06:18:30;15.30;99.90
19292;DHT22;9779;51.756;7.450;2022-07-15T06:20:55;15.30;99.90
19292;DHT22;9779;51.756;7.450;2022-07-15T06:23:21;15.30;99.90
19292;DHT22;9779;51.756;7.450;2022-07-15T06:25:47;15.30;99.90
19292;DHT22;9779;51.756;7.450;2022-07-15T06:28:12;15.40;99.90
19292;DHT22;9779;51.756;7.450;2022-07-15T06:30:39;15.50;99.90
19292;DHT22;9779;51.756;7.450;2022-07-15T06:33:04;15.50;99.90
19292;DHT22;9779;51.756;7.450;2022-07-15T06:35:30;15.50;99.90
19292;DHT22;9779;51.756;7.450;2022-07-15T06:37:55;15.50;99.90
19292;DHT22;9779;51.756;7.450;2022-07-15T06:40:21;15.60;99.90
19292;DHT22;9779;51.756;7.450;2022-07-15T06:42:46;15.60;99.90
19292;DHT22;9779;51.756;7.450;2022-07-15T06:45:12;15.60;99.90
19292;DHT22;9779;51.756;7.450;2022-07-15T06:47:41;15.50;99.90
19292;DHT22;9779;51.756;7.450;2022-07-15T06:50:08;15.60;99.90
19292;DHT22;9779;51.756;7.450;2022-07-15T06:52:33;15.60;99.90
19292;DHT22;9779;51.756;7.450;2022-07-15T06:54:59;15.60;99.90
19292;DHT22;9779;51.756;7.450;2022-07-15T06:57:24;15.60;99.90
19292;DHT22;9779;51.756;7.450;2022-07-15T06:59:50;15.60;99.90
19292;DHT22;9779;51.756;7.450;2022-07-15T07:02:16;15.60;99.90
19292;DHT22;9779;51.756;7.450;2022-07-15T07:04:41;15.80;99.90
19292;DHT22;9779;51.756;7.450;2022-07-15T07:07:10;15.70;99.90
19292;DHT22;9779;51.756;7.450;2022-07-15T07:09:36;15.70;99.90
19292;DHT22;9779;51.756;7.450;2022-07-15T07:12:02;15.70;99.90
19292;DHT22;9779;51.756;7.450;2022-07-15T07:14:27;15.70;99.90
19292;DHT22;9779;51.756;7.450;2022-07-15T07:16:53;15.70;99.90
19292;DHT22;9779;51.756;7.450;2022-07-15T07:19:18;15.70;99.90
19292;DHT22;9779;51.756;7.450;2022-07-15T07:21:44;15.70;99.90
19292;DHT22;9779;51.756;7.450;2022-07-15T07:24:10;15.90;99.90
19292;DHT22;9779;51.756;7.450;2022-07-15T07:26:36;15.90;99.90
19292;DHT22;9779;51.756;7.450;2022-07-15T07:29:02;15.90;99.90
19292;DHT22;9779;51.756;7.450;2022-07-15T07:31:28;16.00;99.90
19292;DHT22;9779;51.756;7.450;2022-07-15T07:33:55;15.90;99.90
19292;DHT22;9779;51.756;7.450;2022-07-15T07:36:21;15.90;99.90
19292;DHT22;9779;51.756;7.450;2022-07-15T07:38:47;16.00;99.90
19292;DHT22;9779;51.756;7.450;2022-07-15T07:41:13;16.10;99.90
19292;DHT22;9779;51.756;7.450;2022-07-15T07:43:38;16.30;99.90
19292;DHT22;9779;51.756;7.450;2022-07-15T07:46:04;16.30;99.90
19292;DHT22;9779;51.756;7.450;2022-07-15T07:48:30;16.40;99.90
19292;DHT22;9779;51.756;7.450;2022-07-15T07:50:57;16.50;99.90
19292;DHT22;9779;51.756;7.450;2022-07-15T07:53:23;16.60;99.90
19292;DHT22;9779;51.756;7.450;2022-07-15T07:55:49;16.80;99.90
19292;DHT22;9779;51.756;7.450;2022-07-15T07:58:17;16.90;99.90
19292;DHT22;9779;51.756;7.450;2022-07-15T08:00:44;17.00;99.90
19292;DHT22;9779;51.756;7.450;2022-07-15T08:03:10;17.00;99.90
19292;DHT22;9779;51.756;7.450;2022-07-15T08:05:35;17.00;99.90
19292;DHT22;9779;51.756;7.450;2022-07-15T08:08:13;17.20;99.90
19292;DHT22;9779;51.756;7.450;2022-07-15T08:10:40;17.30;99.90
19292;DHT22;9779;51.756;7.450;2022-07-15T08:13:06;17.30;99.90
19292;DHT22;9779;51.756;7.450;2022-07-15T08:15:32;17.30;99.90
19292;DHT22;9779;51.756;7.450;2022-07-15T08:17:57;17.20;99.90
19292;DHT22;9779;51.756;7.450;2022-07-15T08:20:23;17.30;99.90
19292;DHT22;9779;51.756;7.450;2022-07-15T08:22:49;17.50;99.90
19292;DHT22;9779;51.756;7.450;2022-07-15T08:25:14;17.50;99.90
19292;DHT22;9779;51.756;7.450;2022-07-15T08:27:40;17.50;99.90
19292;DHT22;9779;51.756;7.450;2022-07-15T08:30:06;17.50;99.90
19292;DHT22;9779;51.756;7.450;2022-07-15T08:32:31;17.50;99.90
19292;DHT22;9779;51.756;7.450;2022-07-15T08:34:57;17.50;99.90
19292;DHT22;9779;51.756;7.450;2022-07-15T08:37:25;17.50;99.90
19292;DHT22;9779;51.756;7.450;2022-07-15T08:39:51;17.50;99.90
19292;DHT22;9779;51.756;7.450;2022-07-15T08:42:18;17.60;99.90
19292;DHT22;9779;51.756;7.450;2022-07-15T08:44:43;17.80;99.90
19292;DHT22;9779;51.756;7.450;2022-07-15T08:47:09;18.00;99.90
19292;DHT22;9779;51.756;7.450;2022-07-15T08:49:38;18.10;99.90
19292;DHT22;9779;51.756;7.450;2022-07-15T08:52:05;18.10;99.90
19292;DHT22;9779;51.756;7.450;2022-07-15T08:54:31;18.00;99.90
19292;DHT22;9779;51.756;7.450;2022-07-15T08:56:58;17.90;99.90
19292;DHT22;9779;51.756;7.450;2022-07-15T08:59:24;17.90;99.90
19292;DHT22;9779;51.756;7.450;2022-07-15T09:01:50;17.90;99.90
19292;DHT22;9779;51.756;7.450;2022-07-15T09:04:16;18.10;99.90
19292;DHT22;9779;51.756;7.450;2022-07-15T09:06:46;18.20;99.90
19292;DHT22;9779;51.756;7.450;2022-07-15T09:09:22;18.40;99.90
19292;DHT22;9779;51.756;7.450;2022-07-15T09:12:07;18.80;99.90
19292;DHT22;9779;51.756;7.450;2022-07-15T09:14:35;18.90;99.90
19292;DHT22;9779;51.756;7.450;2022-07-15T09:22:33;19.00;99.90
19292;DHT22;9779;51.756;7.450;2022-07-15T09:25:08;18.90;99.90
19292;DHT22;9779;51.756;7.450;2022-07-15T09:27:39;19.00;99.90
19292;DHT22;9779;51.756;7.450;2022-07-15T09:30:13;19.00;99.90
19292;DHT22;9779;51.756;7.450;2022-07-15T09:32:59;18.90;99.90
19292;DHT22;9779;51.756;7.450;2022-07-15T09:35:44;18.80;99.90
19292;DHT22;9779;51.756;7.450;2022-07-15T09:38:34;18.80;99.90
19292;DHT22;9779;51.756;7.450;2022-07-15T09:41:01;18.90;99.90
19292;DHT22;9779;51.756;7.450;2022-07-15T09:43:27;19.10;99.90
19292;DHT22;9779;51.756;7.450;2022-07-15T09:46:00;19.30;99.90
19292;DHT22;9779;51.756;7.450;2022-07-15T09:48:27;19.60;99.90
19292;DHT22;9779;51.756;7.450;2022-07-15T09:50:58;20.00;99.90
19292;DHT22;9779;51.756;7.450;2022-07-15T09:53:24;20.30;99.90
19292;DHT22;9779;51.756;7.450;2022-07-15T09:55:50;20.20;99.90
19292;DHT22;9779;51.756;7.450;2022-07-15T09:58:18;20.00;99.90
19292;DHT22;9779;51.756;7.450;2022-07-15T10:00:44;20.00;99.90
19292;DHT22;9779;51.756;7.450;2022-07-15T10:03:10;19.70;99.90
19292;DHT22;9779;51.756;7.450;2022-07-15T10:05:39;19.70;99.90
19292;DHT22;9779;51.756;7.450;2022-07-15T10:08:06;20.00;99.90
19292;DHT22;9779;51.756;7.450;2022-07-15T10:10:35;20.00;99.90
19292;DHT22;9779;51.756;7.450;2022-07-15T10:13:39;20.00;99.90
19292;DHT22;9779;51.756;7.450;2022-07-15T10:27:21;20.00;99.90
19292;DHT22;9779;51.756;7.450;2022-07-15T10:29:52;20.30;99.90
19292;DHT22;9779;51.756;7.450;2022-07-15T10:32:18;20.40;99.90
19292;DHT22;9779;51.756;7.450;2022-07-15T10:34:43;20.30;99.90
19292;DHT22;9779;51.756;7.450;2022-07-15T10:37:11;20.20;99.90
19292;DHT22;9779;51.756;7.450;2022-07-15T10:42:11;20.10;99.90
19292;DHT22;9779;51.756;7.450;2022-07-15T10:45:09;20.10;99.90
19292;DHT22;9779;51.756;7.450;2022-07-15T10:47:34;20.20;99.90
19292;DHT22;9779;51.756;7.450;2022-07-15T10:50:01;20.30;99.90
19292;DHT22;9779;51.756;7.450;2022-07-15T10:52:46;20.30;99.90
19292;DHT22;9779;51.756;7.450;2022-07-15T10:55:11;20.40;99.90
19292;DHT22;9779;51.756;7.450;2022-07-15T11:00:25;20.40;99.90
19292;DHT22;9779;51.756;7.450;2022-07-15T11:03:09;20.50;99.90
19292;DHT22;9779;51.756;7.450;2022-07-15T11:11:00;20.70;99.90
19292;DHT22;9779;51.756;7.450;2022-07-15T11:13:48;20.60;99.90
19292;DHT22;9779;51.756;7.450;2022-07-15T11:16:19;20.70;99.90
19292;DHT22;9779;51.756;7.450;2022-07-15T11:18:47;21.10;99.90
19292;DHT22;9779;51.756;7.450;2022-07-15T11:21:13;21.20;99.90
19292;DHT22;9779;51.756;7.450;2022-07-15T11:23:39;21.20;99.90
19292;DHT22;9779;51.756;7.450;2022-07-15T11:26:08;21.20;99.90
19292;DHT22;9779;51.756;7.450;2022-07-15T11:28:36;21.10;99.90
19292;DHT22;9779;51.756;7.450;2022-07-15T11:31:01;21.10;99.90
19292;DHT22;9779;51.756;7.450;2022-07-15T11:33:28;21.10;99.90
19292;DHT22;9779;51.756;7.450;2022-07-15T11:36:01;21.10;99.90
19292;DHT22;9779;51.756;7.450;2022-07-15T11:38:31;21.00;99.90
19292;DHT22;9779;51.756;7.450;2022-07-15T11:41:03;21.20;99.90
19292;DHT22;9779;51.756;7.450;2022-07-15T11:44:04;21.30;99.90
19292;DHT22;9779;51.756;7.450;2022-07-15T11:46:49;21.40;99.60
19292;DHT22;9779;51.756;7.450;2022-07-15T11:49:35;22.10;99.90
19292;DHT22;9779;51.756;7.450;2022-07-15T11:52:05;22.50;99.00
19292;DHT22;9779;51.756;7.450;2022-07-15T11:54:31;22.50;99.40
19292;DHT22;9779;51.756;7.450;2022-07-15T11:57:02;22.40;99.50
19292;DHT22;9779;51.756;7.450;2022-07-15T11:59:29;22.30;99.30
19292;DHT22;9779;51.756;7.450;2022-07-15T12:02:05;22.40;97.80
19292;DHT22;9779;51.756;7.450;2022-07-15T12:04:32;22.70;97.90
19292;DHT22;9779;51.756;7.450;2022-07-15T12:06:58;22.90;99.90
19292;DHT22;9779;51.756;7.450;2022-07-15T12:09:23;23.40;95.20
19292;DHT22;9779;51.756;7.450;2022-07-15T12:11:49;23.60;94.60
19292;DHT22;9779;51.756;7.450;2022-07-15T12:14:23;23.90;93.30
19292;DHT22;9779;51.756;7.450;2022-07-15T12:16:52;23.90;93.50
19292;DHT22;9779;51.756;7.450;2022-07-15T12:19:20;23.80;92.60
19292;DHT22;9779;51.756;7.450;2022-07-15T12:21:50;23.30;92.40
19292;DHT22;9779;51.756;7.450;2022-07-15T12:24:21;23.10;92.70
19292;DHT22;9779;51.756;7.450;2022-07-15T12:29:18;23.90;93.70
19292;DHT22;9779;51.756;7.450;2022-07-15T12:32:00;24.00;92.20
19292;DHT22;9779;51.756;7.450;2022-07-15T12:34:49;23.40;90.90
19292;DHT22;9779;51.756;7.450;2022-07-15T12:40:08;23.80;90.60
19292;DHT22;9779;51.756;7.450;2022-07-15T12:42:48;23.80;86.40
19292;DHT22;9779;51.756;7.450;2022-07-15T12:45:18;24.00;87.70
19292;DHT22;9779;51.756;7.450;2022-07-15T12:48:07;24.20;87.30
19292;DHT22;9779;51.756;7.450;2022-07-15T12:50:57;24.10;84.60
19292;DHT22;9779;51.756;7.450;2022-07-15T12:53:24;24.00;85.10
19292;DHT22;9779;51.756;7.450;2022-07-15T12:55:51;23.90;86.70
19292;DHT22;9779;51.756;7.450;2022-07-15T12:58:25;23.80;87.70
19292;DHT22;9779;51.756;7.450;2022-07-15T13:00:52;23.50;88.00
19292;DHT22;9779;51.756;7.450;2022-07-15T13:03:19;23.40;88.70
19292;DHT22;9779;51.756;7.450;2022-07-15T13:05:50;23.30;87.80
19292;DHT22;9779;51.756;7.450;2022-07-15T13:08:41;23.30;89.90
19292;DHT22;9779;51.756;7.450;2022-07-15T13:11:08;23.30;88.40
19292;DHT22;9779;51.756;7.450;2022-07-15T13:13:37;23.60;87.30
19292;DHT22;9779;51.756;7.450;2022-07-15T13:16:03;23.70;88.90
19292;DHT22;9779;51.756;7.450;2022-07-15T13:18:31;24.30;86.00
19292;DHT22;9779;51.756;7.450;2022-07-15T13:20:58;24.40;84.10
19292;DHT22;9779;51.756;7.450;2022-07-15T13:23:24;24.10;82.80
19292;DHT22;9779;51.756;7.450;2022-07-15T13:25:49;24.00;81.30
19292;DHT22;9779;51.756;7.450;2022-07-15T13:28:17;23.90;83.10
19292;DHT22;9779;51.756;7.450;2022-07-15T13:30:43;23.60;83.30
19292;DHT22;9779;51.756;7.450;2022-07-15T13:33:09;23.70;85.50
19292;DHT22;9779;51.756;7.450;2022-07-15T13:35:35;23.70;85.50
19292;DHT22;9779;51.756;7.450;2022-07-15T13:38:01;23.90;87.80
19292;DHT22;9779;51.756;7.450;2022-07-15T13:40:26;24.00;84.40
19292;DHT22;9779;51.756;7.450;2022-07-15T13:42:52;24.00;82.00
19292;DHT22;9779;51.756;7.450;2022-07-15T13:45:18;23.90;80.30
19292;DHT22;9779;51.756;7.450;2022-07-15T13:47:43;24.50;83.40
19292;DHT22;9779;51.756;7.450;2022-07-15T13:50:10;24.90;84.60
19292;DHT22;9779;51.756;7.450;2022-07-15T13:52:56;25.10;82.70
19292;DHT22;9779;51.756;7.450;2022-07-15T13:55:22;24.80;80.30
19292;DHT22;9779;51.756;7.450;2022-07-15T13:57:48;24.40;79.10
19292;DHT22;9779;51.756;7.450;2022-07-15T14:00:22;24.40;81.30
19292;DHT22;9779;51.756;7.450;2022-07-15T14:02:50;24.50;81.50
19292;DHT22;9779;51.756;7.450;2022-07-15T14:05:16;24.20;77.10
19292;DHT22;9779;51.756;7.450;2022-07-15T14:07:42;23.90;78.90
19292;DHT22;9779;51.756;7.450;2022-07-15T14:10:08;24.00;81.50
19292;DHT22;9779;51.756;7.450;2022-07-15T14:12:34;24.00;79.10
19292;DHT22;9779;51.756;7.450;2022-07-15T14:15:01;24.10;79.70
19292;DHT22;9779;51.756;7.450;2022-07-15T14:17:27;23.90;75.50
19292;DHT22;9779;51.756;7.450;2022-07-15T14:19:54;24.00;79.00
19292;DHT22;9779;51.756;7.450;2022-07-15T14:22:20;24.00;78.40
19292;DHT22;9779;51.756;7.450;2022-07-15T14:24:46;24.00;78.40
19292;DHT22;9779;51.756;7.450;2022-07-15T14:27:11;23.50;76.60
19292;DHT22;9779;51.756;7.450;2022-07-15T14:29:37;23.40;76.80
19292;DHT22;9779;51.756;7.450;2022-07-15T14:32:02;23.40;77.90
19292;DHT22;9779;51.756;7.450;2022-07-15T14:34:28;23.60;78.70
19292;DHT22;9779;51.756;7.450;2022-07-15T14:36:54;23.50;78.50
19292;DHT22;9779;51.756;7.450;2022-07-15T14:39:19;23.40;77.90
19292;DHT22;9779;51.756;7.450;2022-07-15T14:41:45;23.30;78.70
19292;DHT22;9779;51.756;7.450;2022-07-15T14:44:10;23.10;77.70
19292;DHT22;9779;51.756;7.450;2022-07-15T14:46:36;22.90;79.90
19292;DHT22;9779;51.756;7.450;2022-07-15T14:49:01;22.90;78.90
19292;DHT22;9779;51.756;7.450;2022-07-15T14:51:28;23.30;79.30
19292;DHT22;9779;51.756;7.450;2022-07-15T14:53:53;23.50;77.60
19292;DHT22;9779;51.756;7.450;2022-07-15T14:56:19;24.00;76.10
19292;DHT22;9779;51.756;7.450;2022-07-15T14:58:44;24.70;76.20
19292;DHT22;9779;51.756;7.450;2022-07-15T15:01:10;24.60;74.50
19292;DHT22;9779;51.756;7.450;2022-07-15T15:03:35;24.80;77.50
19292;DHT22;9779;51.756;7.450;2022-07-15T15:06:01;25.10;74.20
19292;DHT22;9779;51.756;7.450;2022-07-15T15:08:27;25.50;76.50
19292;DHT22;9779;51.756;7.450;2022-07-15T15:10:53;25.60;74.90
19292;DHT22;9779;51.756;7.450;2022-07-15T15:13:18;25.40;73.20
19292;DHT22;9779;51.756;7.450;2022-07-15T15:15:44;25.30;71.90
19292;DHT22;9779;51.756;7.450;2022-07-15T15:18:10;25.20;72.60
19292;DHT22;9779;51.756;7.450;2022-07-15T15:20:35;24.90;73.50
19292;DHT22;9779;51.756;7.450;2022-07-15T15:23:01;24.70;74.10
19292;DHT22;9779;51.756;7.450;2022-07-15T15:25:27;24.50;74.40
19292;DHT22;9779;51.756;7.450;2022-07-15T15:28:11;24.40;75.70
19292;DHT22;9779;51.756;7.450;2022-07-15T15:30:36;24.50;76.00
19292;DHT22;9779;51.756;7.450;2022-07-15T15:33:02;24.60;76.30
19292;DHT22;9779;51.756;7.450;2022-07-15T15:35:28;24.40;76.70
19292;DHT22;9779;51.756;7.450;2022-07-15T15:37:53;24.30;76.60
19292;DHT22;9779;51.756;7.450;2022-07-15T15:40:19;24.20;77.10
19292;DHT22;9779;51.756;7.450;2022-07-15T15:42:45;24.20;76.30
19292;DHT22;9779;51.756;7.450;2022-07-15T15:45:11;24.20;74.70
19292;DHT22;9779;51.756;7.450;2022-07-15T15:47:37;24.30;74.10
19292;DHT22;9779;51.756;7.450;2022-07-15T15:50:03;24.40;75.30
19292;DHT22;9779;51.756;7.450;2022-07-15T15:52:29;24.20;74.80
19292;DHT22;9779;51.756;7.450;2022-07-15T15:54:54;24.00;75.50
19292;DHT22;9779;51.756;7.450;2022-07-15T15:57:20;23.80;74.60
19292;DHT22;9779;51.756;7.450;2022-07-15T15:59:45;23.70;73.70
19292;DHT22;9779;51.756;7.450;2022-07-15T16:02:11;23.70;74.30
19292;DHT22;9779;51.756;7.450;2022-07-15T16:04:36;23.70;75.00
19292;DHT22;9779;51.756;7.450;2022-07-15T16:07:03;23.70;75.40
19292;DHT22;9779;51.756;7.450;2022-07-15T16:09:28;23.90;76.50
19292;DHT22;9779;51.756;7.450;2022-07-15T16:11:54;23.90;74.50
19292;DHT22;9779;51.756;7.450;2022-07-15T16:14:20;23.80;75.80
19292;DHT22;9779;51.756;7.450;2022-07-15T16:16:45;23.90;76.30
19292;DHT22;9779;51.756;7.450;2022-07-15T16:19:11;23.90;76.80
19292;DHT22;9779;51.756;7.450;2022-07-15T16:21:36;23.90;76.90
19292;DHT22;9779;51.756;7.450;2022-07-15T16:24:21;23.90;76.90
19292;DHT22;9779;51.756;7.450;2022-07-15T16:26:46;23.80;76.50
19292;DHT22;9779;51.756;7.450;2022-07-15T16:29:12;23.80;75.10
19292;DHT22;9779;51.756;7.450;2022-07-15T16:31:37;23.50;77.20
19292;DHT22;9779;51.756;7.450;2022-07-15T16:34:03;23.50;76.80
19292;DHT22;9779;51.756;7.450;2022-07-15T16:36:29;23.60;76.40
19292;DHT22;9779;51.756;7.450;2022-07-15T16:38:54;23.60;76.50
19292;DHT22;9779;51.756;7.450;2022-07-15T16:41:20;23.60;77.50
19292;DHT22;9779;51.756;7.450;2022-07-15T16:43:46;23.80;75.50
19292;DHT22;9779;51.756;7.450;2022-07-15T16:46:11;24.00;76.10
19292;DHT22;9779;51.756;7.450;2022-07-15T16:48:37;24.20;75.30
19292;DHT22;9779;51.756;7.450;2022-07-15T16:51:02;24.40;76.30
19292;DHT22;9779;51.756;7.450;2022-07-15T16:53:28;24.60;73.90
19292;DHT22;9779;51.756;7.450;2022-07-15T16:55:54;24.70;73.50
19292;DHT22;9779;51.756;7.450;2022-07-15T16:58:19;25.00;73.80
19292;DHT22;9779;51.756;7.450;2022-07-15T17:00:45;24.70;73.40
19292;DHT22;9779;51.756;7.450;2022-07-15T17:03:11;24.80;74.40
19292;DHT22;9779;51.756;7.450;2022-07-15T17:05:36;24.80;73.70
19292;DHT22;9779;51.756;7.450;2022-07-15T17:08:03;24.80;73.70
19292;DHT22;9779;51.756;7.450;2022-07-15T17:10:29;24.80;73.00
19292;DHT22;9779;51.756;7.450;2022-07-15T17:12:55;24.20;74.30
19292;DHT22;9779;51.756;7.450;2022-07-15T17:15:21;24.00;75.00
19292;DHT22;9779;51.756;7.450;2022-07-15T17:17:46;24.00;76.20
19292;DHT22;9779;51.756;7.450;2022-07-15T17:20:13;23.90;76.00
19292;DHT22;9779;51.756;7.450;2022-07-15T17:22:40;23.80;76.50
19292;DHT22;9779;51.756;7.450;2022-07-15T17:25:06;23.80;77.30
19292;DHT22;9779;51.756;7.450;2022-07-15T17:27:31;23.80;77.90
19292;DHT22;9779;51.756;7.450;2022-07-15T17:29:57;23.80;77.70
19292;DHT22;9779;51.756;7.450;2022-07-15T17:32:23;24.00;78.40
19292;DHT22;9779;51.756;7.450;2022-07-15T17:34:48;23.90;79.00
19292;DHT22;9779;51.756;7.450;2022-07-15T17:37:14;24.00;79.80
19292;DHT22;9779;51.756;7.450;2022-07-15T17:39:39;24.20;79.60
19292;DHT22;9779;51.756;7.450;2022-07-15T17:42:05;24.40;78.20
19292;DHT22;9779;51.756;7.450;2022-07-15T17:44:30;24.30;78.40